sensor_id;sensor_type;location;lat;lon;timestamp;pressure;altitude;pressure_sealevel;temperature;humidity
55271;BME280;41132;47.162;9.470;2023-05-14T00:00:13;96364.38;;;12.44;100.00
55271;BME280;41132;47.162;9.470;2023-05-14T00:02:39;96345.66;;;12.39;100.00
55271;BME280;41132;47.162;9.470;2023-05-14T00:05:04;96372.56;;;12.49;100.00
55271;BME280;41132;47.162;9.470;2023-05-14T00:07:30;96350.75;;;12.40;100.00
55271;BME280;41132;47.162;9.470;2023-05-14T00:09:56;96347.84;;;12.27;100.00
55271;BME280;41132;47.162;9.470;2023-05-14T00:12:22;96339.44;;;12.23;100.00
55271;BME280;41132;47.162;9.470;2023-05-14T00:14:47;96349.75;;;12.33;100.00
55271;BME280;41132;47.162;9.470;2023-05-14T00:17:13;96332.56;;;12.14;100.00
55271;BME280;41132;47.162;9.470;2023-05-14T00:19:38;96350.28;;;12.28;100.00
55271;BME280;41132;47.162;9.470;2023-05-14T00:22:06;96346.97;;;12.35;100.00
55271;BME280;41132;47.162;9.470;2023-05-14T00:24:32;96339.56;;;12.38;100.00
55271;BME280;41132;47.162;9.470;2023-05-14T00:26:57;96323.50;;;12.25;100.00
55271;BME280;41132;47.162;9.470;2023-05-14T00:29:23;96343.19;;;12.37;100.00
55271;BME280;41132;47.162;9.470;2023-05-14T00:31:48;96316.06;;;12.28;100.00
55271;BME280;41132;47.162;9.470;2023-05-14T00:34:13;96316.91;;;12.29;100.00
55271;BME280;41132;47.162;9.470;2023-05-14T00:36:39;96343.50;;;12.42;100.00
55271;BME280;41132;47.162;9.470;2023-05-14T00:39:04;96335.13;;;12.39;100.00
55271;BME280;41132;47.162;9.470;2023-05-14T00:41:30;96343.16;;;12.45;100.00
55271;BME280;41132;47.162;9.470;2023-05-14T00:43:55;96340.59;;;12.29;100.00
55271;BME280;41132;47.162;9.470;2023-05-14T00:46:21;96321.22;;;12.22;100.00
55271;BME280;41132;47.162;9.470;2023-05-14T00:48:46;96333.00;;;12.34;100.00
55271;BME280;41132;47.162;9.470;2023-05-14T00:51:12;96333.34;;;12.31;100.00
55271;BME280;41132;47.162;9.470;2023-05-14T00:53:38;96342.88;;;12.32;100.00
55271;BME280;41132;47.162;9.470;2023-05-14T00:56:04;96336.81;;;12.23;100.00
55271;BME280;41132;47.162;9.470;2023-05-14T00:58:30;96327.31;;;12.14;100.00
55271;BME280;41132;47.162;9.470;2023-05-14T01:00:55;96328.97;;;12.15;100.00
55271;BME280;41132;47.162;9.470;2023-05-14T01:03:21;96339.75;;;12.28;100.00
55271;BME280;41132;47.162;9.470;2023-05-14T01:11:54;96336.50;;;12.26;100.00
55271;BME280;41132;47.162;9.470;2023-05-14T01:14:30;96335.97;;;12.31;100.00
55271;BME280;41132;47.162;9.470;2023-05-14T01:16:59;96344.69;;;12.31;100.00
55271;BME280;41132;47.162;9.470;2023-05-14T01:19:36;96340.09;;;12.25;100.00
55271;BME280;41132;47.162;9.470;2023-05-14T01:22:03;96341.94;;;12.17;100.00
55271;BME280;41132;47.162;9.470;2023-05-14T01:24:29;96341.63;;;12.20;100.00
55271;BME280;41132;47.162;9.470;2023-05-14T01:27:00;96331.25;;;12.18;100.00
55271;BME280;41132;47.162;9.470;2023-05-14T01:29:28;96338.28;;;12.26;100.00
55271;BME280;41132;47.162;9.470;2023-05-14T01:31:56;96320.06;;;12.16;100.00
55271;BME280;41132;47.162;9.470;2023-05-14T01:34:23;96318.31;;;12.08;100.00
55271;BME280;41132;47.162;9.470;2023-05-14T01:36:51;96339.16;;;12.18;100.00
55271;BME280;41132;47.162;9.470;2023-05-14T01:39:18;96336.34;;;12.20;100.00
55271;BME280;41132;47.162;9.470;2023-05-14T01:41:44;96329.13;;;12.22;100.00
55271;BME280;41132;47.162;9.470;2023-05-14T01:44:11;96327.81;;;12.09;100.00
55271;BME280;41132;47.162;9.470;2023-05-14T01:46:36;96313.22;;;11.99;100.00
55271;BME280;41132;47.162;9.470;2023-05-14T01:49:02;96335.38;;;12.12;100.00
55271;BME280;41132;47.162;9.470;2023-05-14T01:51:27;96317.13;;;12.11;100.00
55271;BME280;41132;47.162;9.470;2023-05-14T01:53:53;96311.69;;;12.12;100.00
55271;BME280;41132;47.162;9.470;2023-05-14T01:56:19;96325.16;;;12.18;100.00
55271;BME280;41132;47.162;9.470;2023-05-14T01:58:46;96318.09;;;12.18;100.00
55271;BME280;41132;47.162;9.470;2023-05-14T02:01:11;96285.78;;;11.93;100.00
55271;BME280;41132;47.162;9.470;2023-05-14T02:03:36;96309.91;;;12.05;100.00
55271;BME280;41132;47.162;9.470;2023-05-14T02:06:02;96315.47;;;12.18;100.00
55271;BME280;41132;47.162;9.470;2023-05-14T02:08:27;96315.97;;;12.22;100.00
55271;BME280;41132;47.162;9.470;2023-05-14T02:10:53;96318.75;;;12.20;100.00
55271;BME280;41132;47.162;9.470;2023-05-14T02:13:18;96305.47;;;12.05;100.00
55271;BME280;41132;47.162;9.470;2023-05-14T02:15:43;96304.78;;;12.11;100.00
55271;BME280;41132;47.162;9.470;2023-05-14T02:18:09;96302.97;;;12.20;100.00
55271;BME280;41132;47.162;9.470;2023-05-14T02:20:34;96299.69;;;12.18;100.00
55271;BME280;41132;47.162;9.470;2023-05-14T02:22:59;96306.72;;;12.26;100.00
55271;BME280;41132;47.162;9.470;2023-05-14T02:25:25;96304.56;;;12.29;100.00
55271;BME280;41132;47.162;9.470;2023-05-14T02:27:50;96277.31;;;12.14;100.00
55271;BME280;41132;47.162;9.470;2023-05-14T02:30:15;96302.91;;;12.28;100.00
55271;BME280;41132;47.162;9.470;2023-05-14T02:32:41;96299.97;;;12.23;100.00
55271;BME280;41132;47.162;9.470;2023-05-14T02:35:07;96291.13;;;12.16;100.00
55271;BME280;41132;47.162;9.470;2023-05-14T02:37:32;96275.56;;;12.06;100.00
55271;BME280;41132;47.162;9.470;2023-05-14T02:39:59;96294.41;;;12.26;100.00
55271;BME280;41132;47.162;9.470;2023-05-14T02:42:24;96281.25;;;12.18;100.00
55271;BME280;41132;47.162;9.470;2023-05-14T02:44:50;96275.19;;;12.18;100.00
55271;BME280;41132;47.162;9.470;2023-05-14T02:47:16;96291.72;;;12.35;100.00
55271;BME280;41132;47.162;9.470;2023-05-14T02:49:42;96290.09;;;12.25;100.00
55271;BME280;41132;47.162;9.470;2023-05-14T02:52:07;96290.25;;;12.24;100.00
55271;BME280;41132;47.162;9.470;2023-05-14T02:54:32;96289.28;;;12.25;100.00
55271;BME280;41132;47.162;9.470;2023-05-14T02:56:58;96271.22;;;12.22;100.00
55271;BME280;41132;47.162;9.470;2023-05-14T02:59:23;96290.72;;;12.36;100.00
55271;BME280;41132;47.162;9.470;2023-05-14T03:01:49;96289.25;;;12.33;100.00
55271;BME280;41132;47.162;9.470;2023-05-14T03:04:14;96286.50;;;12.26;100.00
55271;BME280;41132;47.162;9.470;2023-05-14T03:06:40;96274.19;;;12.19;100.00
55271;BME280;41132;47.162;9.470;2023-05-14T03:09:05;96280.25;;;12.19;100.00
55271;BME280;41132;47.162;9.470;2023-05-14T03:11:31;96276.97;;;12.17;100.00
55271;BME280;41132;47.162;9.470;2023-05-14T03:13:57;96289.16;;;12.18;100.00
55271;BME280;41132;47.162;9.470;2023-05-14T03:16:22;96288.34;;;12.18;100.00
55271;BME280;41132;47.162;9.470;2023-05-14T03:18:47;96291.00;;;12.09;100.00
55271;BME280;41132;47.162;9.470;2023-05-14T03:21:13;96265.41;;;11.95;100.00
55271;BME280;41132;47.162;9.470;2023-05-14T03:23:38;96268.84;;;12.04;100.00
55271;BME280;41132;47.162;9.470;2023-05-14T03:26:04;96281.63;;;12.07;100.00
55271;BME280;41132;47.162;9.470;2023-05-14T03:28:29;96282.94;;;12.11;100.00
55271;BME280;41132;47.162;9.470;2023-05-14T03:30:55;96283.75;;;12.11;100.00
55271;BME280;41132;47.162;9.470;2023-05-14T03:33:20;96269.84;;;11.95;100.00
55271;BME280;41132;47.162;9.470;2023-05-14T03:35:46;96289.38;;;12.08;100.00
55271;BME280;41132;47.162;9.470;2023-05-14T03:38:12;96277.03;;;12.01;100.00
55271;BME280;41132;47.162;9.470;2023-05-14T03:40:37;96256.38;;;11.89;100.00
55271;BME280;41132;47.162;9.470;2023-05-14T03:43:03;96262.28;;;11.91;100.00
55271;BME280;41132;47.162;9.470;2023-05-14T03:45:28;96288.88;;;12.05;100.00
55271;BME280;41132;47.162;9.470;2023-05-14T03:47:54;96270.31;;;11.98;100.00
55271;BME280;41132;47.162;9.470;2023-05-14T03:50:20;96278.38;;;11.97;100.00
55271;BME280;41132;47.162;9.470;2023-05-14T03:52:45;96276.56;;;11.97;100.00
55271;BME280;41132;47.162;9.470;2023-05-14T03:55:11;96274.09;;;11.96;100.00
55271;BME280;41132;47.162;9.470;2023-05-14T03:57:36;96285.47;;;11.88;100.00
55271;BME280;41132;47.162;9.470;2023-05-14T04:00:03;96257.88;;;11.76;100.00
55271;BME280;41132;47.162;9.470;2023-05-14T04:02:28;96267.72;;;11.82;100.00
55271;BME280;41132;47.162;9.470;2023-05-14T04:04:54;96273.94;;;11.81;100.00
55271;BME280;41132;47.162;9.470;2023-05-14T04:07:19;96261.63;;;11.81;100.00
55271;BME280;41132;47.162;9.470;2023-05-14T04:09:44;96262.63;;;11.80;100.00
55271;BME280;41132;47.162;9.470;2023-05-14T04:12:11;96275.78;;;11.88;100.00
55271;BME280;41132;47.162;9.470;2023-05-14T04:14:37;96277.59;;;11.88;100.00
55271;BME280;41132;47.162;9.470;2023-05-14T04:17:02;96259.84;;;11.90;100.00
55271;BME280;41132;47.162;9.470;2023-05-14T04:19:28;96267.06;;;11.88;100.00
55271;BME280;41132;47.162;9.470;2023-05-14T04:21:53;96268.88;;;11.87;100.00
55271;BME280;41132;47.162;9.470;2023-05-14T04:24:18;96261.81;;;11.80;100.00
55271;BME280;41132;47.162;9.470;2023-05-14T04:26:44;96262.75;;;11.87;100.00
55271;BME280;41132;47.162;9.470;2023-05-14T04:29:09;96258.69;;;11.76;100.00
55271;BME280;41132;47.162;9.470;2023-05-14T04:31:35;96261.97;;;11.78;100.00
55271;BME280;41132;47.162;9.470;2023-05-14T04:34:00;96277.22;;;11.83;100.00
55271;BME280;41132;47.162;9.470;2023-05-14T04:36:25;96266.72;;;11.83;100.00
55271;BME280;41132;47.162;9.470;2023-05-14T04:38:51;96280.03;;;11.89;100.00
55271;BME280;41132;47.162;9.470;2023-05-14T04:41:16;96268.53;;;11.90;100.00
55271;BME280;41132;47.162;9.470;2023-05-14T04:43:41;96245.72;;;11.75;100.00
55271;BME280;41132;47.162;9.470;2023-05-14T04:46:07;96277.59;;;11.88;100.00
55271;BME280;41132;47.162;9.470;2023-05-14T04:48:33;96258.34;;;11.79;100.00
55271;BME280;41132;47.162;9.470;2023-05-14T04:50:58;96288.25;;;11.95;100.00
55271;BME280;41132;47.162;9.470;2023-05-14T04:53:24;96290.19;;;12.01;100.00
55271;BME280;41132;47.162;9.470;2023-05-14T04:55:49;96278.50;;;12.03;100.00
55271;BME280;41132;47.162;9.470;2023-05-14T04:58:15;96278.03;;;12.00;100.00
55271;BME280;41132;47.162;9.470;2023-05-14T05:00:41;96264.56;;;11.86;100.00
55271;BME280;41132;47.162;9.470;2023-05-14T05:03:06;96280.47;;;12.01;100.00
55271;BME280;41132;47.162;9.470;2023-05-14T05:05:32;96276.38;;;11.99;100.00
55271;BME280;41132;47.162;9.470;2023-05-14T05:07:59;96285.59;;;12.03;100.00
55271;BME280;41132;47.162;9.470;2023-05-14T05:10:24;96288.53;;;12.08;100.00
55271;BME280;41132;47.162;9.470;2023-05-14T05:12:50;96278.88;;;12.00;100.00
55271;BME280;41132;47.162;9.470;2023-05-14T05:15:15;96275.88;;;12.03;100.00
55271;BME280;41132;47.162;9.470;2023-05-14T05:17:41;96281.31;;;12.02;100.00
55271;BME280;41132;47.162;9.470;2023-05-14T05:20:07;96273.75;;;11.99;100.00
55271;BME280;41132;47.162;9.470;2023-05-14T05:22:34;96275.41;;;12.00;100.00
55271;BME280;41132;47.162;9.470;2023-05-14T05:25:00;96279.66;;;12.09;100.00
55271;BME280;41132;47.162;9.470;2023-05-14T05:27:25;96252.78;;;11.90;100.00
55271;BME280;41132;47.162;9.470;2023-05-14T05:29:51;96279.81;;;12.07;100.00
55271;BME280;41132;47.162;9.470;2023-05-14T05:32:16;96278.00;;;12.08;100.00
55271;BME280;41132;47.162;9.470;2023-05-14T05:34:42;96291.28;;;12.15;100.00
55271;BME280;41132;47.162;9.470;2023-05-14T05:37:07;96281.28;;;12.10;100.00
55271;BME280;41132;47.162;9.470;2023-05-14T05:39:36;96284.19;;;12.23;100.00
55271;BME280;41132;47.162;9.470;2023-05-14T05:42:03;96292.72;;;12.33;100.00
55271;BME280;41132;47.162;9.470;2023-05-14T05:44:29;96278.59;;;12.26;100.00
55271;BME280;41132;47.162;9.470;2023-05-14T05:46:54;96284.81;;;12.33;100.00
55271;BME280;41132;47.162;9.470;2023-05-14T05:49:23;96288.09;;;12.36;100.00
55271;BME280;41132;47.162;9.470;2023-05-14T05:51:48;96249.03;;;12.16;100.00
55271;BME280;41132;47.162;9.470;2023-05-14T05:54:13;96286.75;;;12.40;100.00
55271;BME280;41132;47.162;9.470;2023-05-14T05:56:39;96287.09;;;12.37;100.00
55271;BME280;41132;47.162;9.470;2023-05-14T05:59:04;96264.44;;;12.27;100.00
55271;BME280;41132;47.162;9.470;2023-05-14T06:01:29;96277.91;;;12.32;100.00
55271;BME280;41132;47.162;9.470;2023-05-14T06:03:55;96282.63;;;12.45;100.00
55271;BME280;41132;47.162;9.470;2023-05-14T06:06:21;96283.78;;;12.43;100.00
55271;BME280;41132;47.162;9.470;2023-05-14T06:08:46;96267.19;;;12.42;100.00
55271;BME280;41132;47.162;9.470;2023-05-14T06:11:11;96277.94;;;12.56;100.00
55271;BME280;41132;47.162;9.470;2023-05-14T06:13:37;96268.53;;;12.61;100.00
55271;BME280;41132;47.162;9.470;2023-05-14T06:16:02;96283.59;;;12.75;100.00
55271;BME280;41132;47.162;9.470;2023-05-14T06:18:27;96280.78;;;12.77;100.00
55271;BME280;41132;47.162;9.470;2023-05-14T06:20:53;96276.34;;;12.78;100.00
55271;BME280;41132;47.162;9.470;2023-05-14T06:23:20;96270.72;;;12.81;100.00
55271;BME280;41132;47.162;9.470;2023-05-14T06:25:46;96281.84;;;12.91;100.00
55271;BME280;41132;47.162;9.470;2023-05-14T06:28:13;96281.44;;;12.79;100.00
55271;BME280;41132;47.162;9.470;2023-05-14T06:30:38;96277.63;;;12.82;100.00
55271;BME280;41132;47.162;9.470;2023-05-14T06:33:04;96279.13;;;12.76;100.00
55271;BME280;41132;47.162;9.470;2023-05-14T06:35:29;96279.63;;;12.80;100.00
55271;BME280;41132;47.162;9.470;2023-05-14T06:37:55;96276.56;;;12.68;100.00
55271;BME280;41132;47.162;9.470;2023-05-14T06:40:20;96270.00;;;12.64;100.00
55271;BME280;41132;47.162;9.470;2023-05-14T06:42:46;96266.88;;;12.60;100.00
55271;BME280;41132;47.162;9.470;2023-05-14T06:45:11;96272.72;;;12.79;100.00
55271;BME280;41132;47.162;9.470;2023-05-14T06:47:36;96255.75;;;12.81;100.00
55271;BME280;41132;47.162;9.470;2023-05-14T06:50:02;96273.06;;;12.99;100.00
55271;BME280;41132;47.162;9.470;2023-05-14T06:52:27;96254.69;;;12.90;100.00
55271;BME280;41132;47.162;9.470;2023-05-14T06:54:52;96270.84;;;13.10;100.00
55271;BME280;41132;47.162;9.470;2023-05-14T06:57:18;96272.88;;;13.00;100.00
55271;BME280;41132;47.162;9.470;2023-05-14T06:59:43;96272.47;;;13.11;100.00
55271;BME280;41132;47.162;9.470;2023-05-14T07:02:09;96269.19;;;13.09;100.00
55271;BME280;41132;47.162;9.470;2023-05-14T07:04:34;96264.34;;;12.98;100.00
55271;BME280;41132;47.162;9.470;2023-05-14T07:07:00;96273.88;;;13.22;100.00
55271;BME280;41132;47.162;9.470;2023-05-14T07:09:25;96263.63;;;13.27;100.00
55271;BME280;41132;47.162;9.470;2023-05-14T07:11:51;96268.00;;;13.35;100.00
55271;BME280;41132;47.162;9.470;2023-05-14T07:14:16;96264.06;;;13.54;100.00
55271;BME280;41132;47.162;9.470;2023-05-14T07:16:41;96262.94;;;13.48;100.00
55271;BME280;41132;47.162;9.470;2023-05-14T07:19:07;96271.41;;;13.44;100.00
55271;BME280;41132;47.162;9.470;2023-05-14T07:21:34;96267.25;;;13.49;100.00
55271;BME280;41132;47.162;9.470;2023-05-14T07:23:59;96262.94;;;13.48;100.00
55271;BME280;41132;47.162;9.470;2023-05-14T07:26:25;96263.50;;;13.44;100.00
55271;BME280;41132;47.162;9.470;2023-05-14T07:28:50;96265.16;;;13.60;100.00
55271;BME280;41132;47.162;9.470;2023-05-14T07:31:15;96231.97;;;13.35;100.00
55271;BME280;41132;47.162;9.470;2023-05-14T07:33:41;96255.59;;;13.44;100.00
55271;BME280;41132;47.162;9.470;2023-05-14T07:36:06;96254.88;;;13.50;100.00
55271;BME280;41132;47.162;9.470;2023-05-14T07:38:32;96258.97;;;13.52;100.00
55271;BME280;41132;47.162;9.470;2023-05-14T07:40:57;96250.88;;;13.54;100.00
55271;BME280;41132;47.162;9.470;2023-05-14T07:43:23;96242.50;;;13.50;100.00
55271;BME280;41132;47.162;9.470;2023-05-14T07:45:48;96256.34;;;13.67;100.00
55271;BME280;41132;47.162;9.470;2023-05-14T07:48:14;96256.81;;;13.71;100.00
55271;BME280;41132;47.162;9.470;2023-05-14T07:50:39;96243.28;;;13.74;100.00
55271;BME280;41132;47.162;9.470;2023-05-14T07:53:05;96250.44;;;13.80;100.00
55271;BME280;41132;47.162;9.470;2023-05-14T07:55:30;96243.34;;;13.81;100.00
55271;BME280;41132;47.162;9.470;2023-05-14T07:57:55;96228.81;;;13.70;100.00
55271;BME280;41132;47.162;9.470;2023-05-14T08:00:21;96260.06;;;13.73;100.00
55271;BME280;41132;47.162;9.470;2023-05-14T08:02:46;96258.00;;;13.83;100.00
55271;BME280;41132;47.162;9.470;2023-05-14T08:05:12;96245.38;;;13.78;100.00
55271;BME280;41132;47.162;9.470;2023-05-14T08:07:38;96243.53;;;13.79;100.00
55271;BME280;41132;47.162;9.470;2023-05-14T08:10:04;96238.59;;;13.76;100.00
55271;BME280;41132;47.162;9.470;2023-05-14T08:12:30;96257.00;;;13.99;100.00
55271;BME280;41132;47.162;9.470;2023-05-14T08:14:56;96240.63;;;14.04;100.00
55271;BME280;41132;47.162;9.470;2023-05-14T08:17:22;96236.41;;;14.09;100.00
55271;BME280;41132;47.162;9.470;2023-05-14T08:19:47;96229.97;;;13.97;100.00
55271;BME280;41132;47.162;9.470;2023-05-14T08:22:13;96244.25;;;14.03;100.00
55271;BME280;41132;47.162;9.470;2023-05-14T08:24:39;96244.06;;;14.04;100.00
55271;BME280;41132;47.162;9.470;2023-05-14T08:27:04;96242.78;;;14.00;100.00
55271;BME280;41132;47.162;9.470;2023-05-14T08:29:30;96223.72;;;13.83;100.00
55271;BME280;41132;47.162;9.470;2023-05-14T08:31:56;96231.06;;;13.88;100.00
55271;BME280;41132;47.162;9.470;2023-05-14T08:34:21;96214.34;;;13.66;100.00
55271;BME280;41132;47.162;9.470;2023-05-14T08:36:46;96226.06;;;13.78;100.00
55271;BME280;41132;47.162;9.470;2023-05-14T08:39:12;96233.97;;;13.78;100.00
55271;BME280;41132;47.162;9.470;2023-05-14T08:41:38;96212.78;;;13.71;100.00
55271;BME280;41132;47.162;9.470;2023-05-14T08:44:18;96227.13;;;13.98;100.00
55271;BME280;41132;47.162;9.470;2023-05-14T08:46:43;96194.22;;;13.79;100.00
55271;BME280;41132;47.162;9.470;2023-05-14T08:51:48;96223.94;;;14.18;100.00
55271;BME280;41132;47.162;9.470;2023-05-14T08:54:18;96214.81;;;14.35;100.00
55271;BME280;41132;47.162;9.470;2023-05-14T08:56:46;96207.88;;;14.34;100.00
55271;BME280;41132;47.162;9.470;2023-05-14T08:59:12;96202.47;;;14.57;100.00
55271;BME280;41132;47.162;9.470;2023-05-14T09:01:46;96207.19;;;14.62;100.00
55271;BME280;41132;47.162;9.470;2023-05-14T09:04:22;96224.03;;;14.61;100.00
55271;BME280;41132;47.162;9.470;2023-05-14T09:06:49;96197.91;;;14.51;100.00
55271;BME280;41132;47.162;9.470;2023-05-14T09:09:15;96196.19;;;14.58;100.00
55271;BME280;41132;47.162;9.470;2023-05-14T09:11:41;96208.03;;;14.63;100.00
55271;BME280;41132;47.162;9.470;2023-05-14T09:14:07;96205.94;;;14.79;100.00
55271;BME280;41132;47.162;9.470;2023-05-14T09:16:33;96199.25;;;14.62;100.00
55271;BME280;41132;47.162;9.470;2023-05-14T09:19:01;96184.41;;;14.82;100.00
55271;BME280;41132;47.162;9.470;2023-05-14T09:21:27;96200.38;;;14.96;100.00
55271;BME280;41132;47.162;9.470;2023-05-14T09:23:53;96200.25;;;15.04;100.00
55271;BME280;41132;47.162;9.470;2023-05-14T09:26:22;96188.63;;;15.55;100.00
55271;BME280;41132;47.162;9.470;2023-05-14T09:28:48;96181.88;;;15.52;100.00
55271;BME280;41132;47.162;9.470;2023-05-14T09:31:13;96167.81;;;15.45;100.00
55271;BME280;41132;47.162;9.470;2023-05-14T09:33:38;96181.25;;;15.50;100.00
55271;BME280;41132;47.162;9.470;2023-05-14T09:36:04;96183.22;;;15.70;100.00
55271;BME280;41132;47.162;9.470;2023-05-14T09:38:30;96169.69;;;15.86;100.00
55271;BME280;41132;47.162;9.470;2023-05-14T09:40:56;96184.00;;;15.63;100.00
55271;BME280;41132;47.162;9.470;2023-05-14T09:43:22;96194.13;;;15.60;100.00
55271;BME280;41132;47.162;9.470;2023-05-14T09:45:47;96184.16;;;15.27;100.00
55271;BME280;41132;47.162;9.470;2023-05-14T09:48:13;96171.81;;;15.06;100.00
55271;BME280;41132;47.162;9.470;2023-05-14T09:50:42;96168.44;;;14.91;100.00
55271;BME280;41132;47.162;9.470;2023-05-14T09:53:09;96181.25;;;14.94;100.00
55271;BME280;41132;47.162;9.470;2023-05-14T09:55:35;96180.56;;;14.85;100.00
55271;BME280;41132;47.162;9.470;2023-05-14T09:58:01;96188.66;;;14.77;100.00
55271;BME280;41132;47.162;9.470;2023-05-14T10:00:30;96166.69;;;14.76;100.00
55271;BME280;41132;47.162;9.470;2023-05-14T10:02:57;96139.28;;;14.56;100.00
55271;BME280;41132;47.162;9.470;2023-05-14T10:05:23;96179.38;;;14.66;100.00
55271;BME280;41132;47.162;9.470;2023-05-14T10:07:50;96178.59;;;14.66;100.00
55271;BME280;41132;47.162;9.470;2023-05-14T10:10:23;96178.91;;;14.56;100.00
55271;BME280;41132;47.162;9.470;2023-05-14T10:12:52;96152.56;;;14.26;100.00
55271;BME280;41132;47.162;9.470;2023-05-14T10:16:05;96173.00;;;14.39;100.00
55271;BME280;41132;47.162;9.470;2023-05-14T10:18:30;96173.41;;;14.21;100.00
55271;BME280;41132;47.162;9.470;2023-05-14T10:21:03;96164.44;;;14.15;100.00
55271;BME280;41132;47.162;9.470;2023-05-14T10:23:29;96165.22;;;13.94;100.00
55271;BME280;41132;47.162;9.470;2023-05-14T10:25:56;96133.75;;;13.78;100.00
55271;BME280;41132;47.162;9.470;2023-05-14T10:28:23;96163.56;;;13.93;100.00
55271;BME280;41132;47.162;9.470;2023-05-14T10:30:49;96170.09;;;13.97;100.00
55271;BME280;41132;47.162;9.470;2023-05-14T10:33:15;96173.81;;;14.03;100.00
55271;BME280;41132;47.162;9.470;2023-05-14T10:36:03;96157.91;;;13.96;100.00
55271;BME280;41132;47.162;9.470;2023-05-14T10:38:31;96161.47;;;14.04;100.00
55271;BME280;41132;47.162;9.470;2023-05-14T10:41:09;96160.81;;;14.02;100.00
55271;BME280;41132;47.162;9.470;2023-05-14T10:43:39;96162.34;;;14.11;100.00
55271;BME280;41132;47.162;9.470;2023-05-14T10:46:05;96163.53;;;14.08;100.00
55271;BME280;41132;47.162;9.470;2023-05-14T10:48:31;96150.06;;;14.03;100.00
55271;BME280;41132;47.162;9.470;2023-05-14T10:50:57;96151.50;;;14.20;100.00
55271;BME280;41132;47.162;9.470;2023-05-14T10:53:34;96157.72;;;14.34;100.00
55271;BME280;41132;47.162;9.470;2023-05-14T10:56:05;96133.22;;;14.40;100.00
55271;BME280;41132;47.162;9.470;2023-05-14T10:58:34;96133.91;;;14.49;100.00
55271;BME280;41132;47.162;9.470;2023-05-14T11:01:00;96136.16;;;14.67;100.00
55271;BME280;41132;47.162;9.470;2023-05-14T11:03:29;96132.34;;;14.55;100.00
55271;BME280;41132;47.162;9.470;2023-05-14T11:06:02;96133.22;;;14.62;100.00
55271;BME280;41132;47.162;9.470;2023-05-14T11:08:28;96141.53;;;14.59;100.00
55271;BME280;41132;47.162;9.470;2023-05-14T11:10:56;96132.66;;;14.67;100.00
55271;BME280;41132;47.162;9.470;2023-05-14T11:13:21;96107.06;;;14.46;100.00
55271;BME280;41132;47.162;9.470;2023-05-14T11:15:46;96127.84;;;14.70;100.00
55271;BME280;41132;47.162;9.470;2023-05-14T11:18:25;96103.75;;;14.58;100.00
55271;BME280;41132;47.162;9.470;2023-05-14T11:20:50;96130.66;;;14.69;100.00
55271;BME280;41132;47.162;9.470;2023-05-14T11:23:16;96120.09;;;14.69;100.00
55271;BME280;41132;47.162;9.470;2023-05-14T11:25:42;96109.78;;;14.74;100.00
55271;BME280;41132;47.162;9.470;2023-05-14T11:28:07;96110.44;;;14.82;100.00
55271;BME280;41132;47.162;9.470;2023-05-14T11:30:36;96116.00;;;14.88;100.00
55271;BME280;41132;47.162;9.470;2023-05-14T11:33:02;96110.03;;;14.79;100.00
55271;BME280;41132;47.162;9.470;2023-05-14T11:35:27;96106.88;;;14.69;100.00
55271;BME280;41132;47.162;9.470;2023-05-14T11:37:53;96109.28;;;14.64;100.00
55271;BME280;41132;47.162;9.470;2023-05-14T11:40:19;96120.47;;;14.66;100.00
55271;BME280;41132;47.162;9.470;2023-05-14T11:42:44;96125.88;;;14.57;100.00
55271;BME280;41132;47.162;9.470;2023-05-14T11:45:11;96128.97;;;14.03;100.00
55271;BME280;41132;47.162;9.470;2023-05-14T11:47:37;96131.00;;;13.86;100.00
55271;BME280;41132;47.162;9.470;2023-05-14T11:50:02;96129.03;;;13.73;100.00
55271;BME280;41132;47.162;9.470;2023-05-14T11:52:28;96136.06;;;13.51;100.00
55271;BME280;41132;47.162;9.470;2023-05-14T11:54:53;96133.22;;;13.53;100.00
55271;BME280;41132;47.162;9.470;2023-05-14T11:57:19;96121.59;;;13.47;100.00
55271;BME280;41132;47.162;9.470;2023-05-14T11:59:46;96126.31;;;13.37;100.00
55271;BME280;41132;47.162;9.470;2023-05-14T12:02:16;96136.22;;;13.65;100.00
55271;BME280;41132;47.162;9.470;2023-05-14T12:04:43;96126.94;;;13.69;100.00
55271;BME280;41132;47.162;9.470;2023-05-14T12:07:14;96123.56;;;13.75;100.00
55271;BME280;41132;47.162;9.470;2023-05-14T12:09:42;96121.31;;;13.72;100.00
55271;BME280;41132;47.162;9.470;2023-05-14T12:12:13;96111.75;;;13.86;100.00
55271;BME280;41132;47.162;9.470;2023-05-14T12:14:41;96110.97;;;13.92;100.00
55271;BME280;41132;47.162;9.470;2023-05-14T12:17:20;96113.81;;;13.90;100.00
55271;BME280;41132;47.162;9.470;2023-05-14T12:19:51;96103.06;;;13.92;100.00
55271;BME280;41132;47.162;9.470;2023-05-14T12:22:21;96117.19;;;13.84;100.00
55271;BME280;41132;47.162;9.470;2023-05-14T12:24:57;96113.66;;;13.77;100.00
55271;BME280;41132;47.162;9.470;2023-05-14T12:27:24;96116.94;;;13.64;100.00
55271;BME280;41132;47.162;9.470;2023-05-14T12:29:57;96145.13;;;13.49;100.00
55271;BME280;41132;47.162;9.470;2023-05-14T12:32:24;96146.44;;;13.38;100.00
55271;BME280;41132;47.162;9.470;2023-05-14T12:34:50;96153.59;;;13.29;100.00
55271;BME280;41132;47.162;9.470;2023-05-14T12:37:15;96146.66;;;13.13;100.00
55271;BME280;41132;47.162;9.470;2023-05-14T12:39:42;96144.66;;;13.15;100.00
55271;BME280;41132;47.162;9.470;2023-05-14T12:42:07;96122.34;;;12.88;100.00
55271;BME280;41132;47.162;9.470;2023-05-14T12:44:33;96142.31;;;12.83;100.00
55271;BME280;41132;47.162;9.470;2023-05-14T12:46:58;96135.47;;;12.73;100.00
55271;BME280;41132;47.162;9.470;2023-05-14T12:49:23;96130.84;;;12.75;100.00
55271;BME280;41132;47.162;9.470;2023-05-14T12:51:49;96104.84;;;12.58;100.00
55271;BME280;41132;47.162;9.470;2023-05-14T12:54:14;96131.59;;;12.69;100.00